createdAt,value
2024-02-18T00:00:30.163Z,26.42
2024-02-18T00:02:02.860Z,23.50
2024-02-18T00:03:35.521Z,27.70
2024-02-18T00:05:08.369Z,27.55
2024-02-18T00:06:40.719Z,21.58
2024-02-18T00:08:12.922Z,24.77
2024-02-18T00:09:46.487Z,28.98
2024-02-18T00:12:50.858Z,26.38
2024-02-18T00:14:23.185Z,28.05
2024-02-18T00:15:55.381Z,28.77
2024-02-18T00:17:27.601Z,26.00
2024-02-18T00:19:01.135Z,27.15
2024-02-18T00:22:06.855Z,22.63
2024-02-18T00:23:39.145Z,25.70
2024-02-18T00:25:11.584Z,27.48
2024-02-18T00:26:54.367Z,30.98
2024-02-18T00:28:30.642Z,25.00
2024-02-18T00:30:02.780Z,23.58
2024-02-18T00:31:35.190Z,22.20
2024-02-18T00:33:07.434Z,27.00
2024-02-18T00:34:39.854Z,23.40
2024-02-18T00:36:12.210Z,24.48
2024-02-18T00:37:44.429Z,23.25
2024-02-18T00:39:17.263Z,23.23
2024-02-18T00:40:49.706Z,25.00
2024-02-18T00:42:21.972Z,23.50
2024-02-18T00:43:54.194Z,24.30
2024-02-18T00:45:26.356Z,28.80
2024-02-18T00:47:05.324Z,23.65
2024-02-18T00:48:38.730Z,26.30
2024-02-18T00:50:11.661Z,23.53
2024-02-18T00:51:43.883Z,24.73
2024-02-18T00:53:16.200Z,26.05
2024-02-18T00:54:48.407Z,24.23
2024-02-18T00:56:20.651Z,26.77
2024-02-18T00:57:52.929Z,25.40
2024-02-18T00:59:25.216Z,24.02
2024-02-18T01:00:57.496Z,23.27
2024-02-18T01:02:31.786Z,24.67
2024-02-18T01:04:04.287Z,22.83
2024-02-18T01:07:11.748Z,26.92
2024-02-18T01:08:44.478Z,20.20
2024-02-18T01:10:16.625Z,23.83
2024-02-18T01:11:48.759Z,24.48
2024-02-18T01:13:20.937Z,29.02
2024-02-18T01:14:53.116Z,24.92
2024-02-18T01:16:25.364Z,23.48
2024-02-18T01:17:57.660Z,23.38
2024-02-18T01:19:29.901Z,24.15
2024-02-18T01:21:02.125Z,27.00
2024-02-18T01:22:35.380Z,27.92
2024-02-18T01:24:07.820Z,26.73
2024-02-18T01:25:40.106Z,23.23
2024-02-18T01:27:12.212Z,24.75
2024-02-18T01:28:44.311Z,23.75
2024-02-18T01:30:16.503Z,23.45
2024-02-18T01:31:48.893Z,24.05
2024-02-18T01:33:22.389Z,28.75
2024-02-18T01:36:28.729Z,25.45
2024-02-18T01:38:00.935Z,26.92
2024-02-18T01:39:33.454Z,24.77
2024-02-18T01:41:05.713Z,22.92
2024-02-18T01:42:39.967Z,21.88
2024-02-18T01:44:12.170Z,21.42
2024-02-18T01:45:44.390Z,26.00
2024-02-18T01:47:16.618Z,25.60
2024-02-18T01:48:49.525Z,30.60
2024-02-18T01:50:22.244Z,23.42
2024-02-18T01:51:54.750Z,28.48
2024-02-18T01:53:26.929Z,24.45
2024-02-18T01:54:59.268Z,24.17
2024-02-18T01:56:31.611Z,25.27
2024-02-18T01:58:05.880Z,24.15
2024-02-18T01:59:38.262Z,26.92
2024-02-18T02:01:10.714Z,27.77
2024-02-18T02:02:43.806Z,27.48
2024-02-18T02:04:16.029Z,26.70
2024-02-18T02:05:49.684Z,27.35
2024-02-18T02:07:25.667Z,29.50
2024-02-18T02:09:00.931Z,25.45
2024-02-18T02:10:33.138Z,35.03
2024-02-18T02:12:06.510Z,23.92
2024-02-18T02:13:38.745Z,25.60
2024-02-18T02:15:11.946Z,29.65
2024-02-18T02:16:44.227Z,25.42
2024-02-18T02:18:16.520Z,27.25
2024-02-18T02:19:48.872Z,25.20
2024-02-18T02:22:53.830Z,29.15
2024-02-18T02:24:26.079Z,27.13
2024-02-18T02:25:58.218Z,23.85
2024-02-18T02:27:37.949Z,22.05
2024-02-18T02:29:17.025Z,26.63
2024-02-18T02:30:50.075Z,25.75
2024-02-18T02:32:22.317Z,21.98
2024-02-18T02:33:54.594Z,27.02
2024-02-18T02:35:29.811Z,23.15
2024-02-18T02:37:02.186Z,23.42
2024-02-18T02:38:37.257Z,22.95
2024-02-18T02:40:09.805Z,22.45
2024-02-18T02:41:42.221Z,24.37
2024-02-18T02:43:17.887Z,28.98
2024-02-18T02:44:50.152Z,28.33
2024-02-18T02:46:22.517Z,24.92
2024-02-18T02:47:54.943Z,24.33
2024-02-18T02:49:27.332Z,33.92
2024-02-18T02:50:59.740Z,29.70
2024-02-18T02:52:31.956Z,29.00
2024-02-18T02:54:04.459Z,29.52
2024-02-18T02:55:36.623Z,30.63
2024-02-18T02:57:08.836Z,24.33
2024-02-18T02:58:40.965Z,24.88
2024-02-18T03:00:13.553Z,28.85
2024-02-18T03:01:45.695Z,30.65
2024-02-18T03:03:18.074Z,27.67
2024-02-18T03:04:50.356Z,30.20
2024-02-18T03:06:22.836Z,28.55
2024-02-18T03:07:55.140Z,22.55
2024-02-18T03:09:27.390Z,23.83
2024-02-18T03:10:59.825Z,24.45
2024-02-18T03:12:32.484Z,28.48
2024-02-18T03:14:04.837Z,26.45
2024-02-18T03:15:37.508Z,22.45
2024-02-18T03:17:09.767Z,24.83
2024-02-18T03:18:44.633Z,25.33
2024-02-18T03:20:17.456Z,28.08
2024-02-18T03:21:50.077Z,29.50
2024-02-18T03:23:22.283Z,33.70
2024-02-18T03:24:54.500Z,29.60
2024-02-18T03:26:27.581Z,36.38
2024-02-18T03:28:01.430Z,32.80
2024-02-18T03:29:37.305Z,33.17
2024-02-18T03:31:18.481Z,31.55
2024-02-18T03:32:50.743Z,21.88
2024-02-18T03:34:23.441Z,28.13
2024-02-18T03:35:55.610Z,29.43
2024-02-18T03:37:27.766Z,30.48
2024-02-18T03:39:00.180Z,30.25
2024-02-18T03:40:33.377Z,30.85
2024-02-18T03:42:05.907Z,28.48
2024-02-18T03:43:38.050Z,36.22
2024-02-18T03:45:10.322Z,31.73
2024-02-18T03:46:42.567Z,28.63
2024-02-18T03:48:14.913Z,32.25
2024-02-18T03:49:47.274Z,31.15
2024-02-18T03:51:19.581Z,34.08
2024-02-18T03:52:51.789Z,31.63
2024-02-18T03:54:24.070Z,31.10
2024-02-18T03:55:56.253Z,28.05
2024-02-18T03:57:28.513Z,23.92
2024-02-18T03:59:00.696Z,25.02
2024-02-18T04:00:33.032Z,24.23
2024-02-18T04:02:05.269Z,26.65
2024-02-18T04:03:37.498Z,27.42
2024-02-18T04:05:12.229Z,23.17
2024-02-18T04:06:45.266Z,21.80
2024-02-18T04:08:17.496Z,26.23
2024-02-18T04:09:49.601Z,22.20
2024-02-18T04:11:21.928Z,22.70
2024-02-18T04:12:54.269Z,21.65
2024-02-18T04:14:26.497Z,24.40
2024-02-18T04:15:58.646Z,21.70
2024-02-18T04:17:30.984Z,20.30
2024-02-18T04:19:03.491Z,23.45
2024-02-18T04:20:35.786Z,23.25
2024-02-18T04:22:08.302Z,43.33
2024-02-18T04:23:40.586Z,64.15
2024-02-18T04:25:13.451Z,30.63
2024-02-18T04:26:45.608Z,35.65
2024-02-18T04:28:17.790Z,57.22
2024-02-18T04:29:50.059Z,54.83
2024-02-18T04:31:22.394Z,33.85
2024-02-18T04:32:54.605Z,34.95
2024-02-18T04:34:26.845Z,40.40
2024-02-18T04:35:59.332Z,41.13
2024-02-18T04:37:31.477Z,30.63
2024-02-18T04:39:03.938Z,25.63
2024-02-18T04:40:36.069Z,25.70
2024-02-18T04:42:08.455Z,25.73
2024-02-18T04:43:40.555Z,23.90
2024-02-18T04:45:12.821Z,21.50
2024-02-18T04:46:44.893Z,20.30
2024-02-18T04:48:17.069Z,23.10
2024-02-18T04:49:49.331Z,21.13
2024-02-18T04:51:21.635Z,22.52
2024-02-18T04:52:54.074Z,20.33
2024-02-18T04:54:27.535Z,25.13
2024-02-18T04:55:59.673Z,43.55
2024-02-18T04:57:31.983Z,37.53
2024-02-18T04:59:04.459Z,84.72
2024-02-18T05:00:36.705Z,30.30
2024-02-18T05:02:09.854Z,30.83
2024-02-18T05:03:45.055Z,31.65
2024-02-18T05:05:17.276Z,70.50
2024-02-18T05:06:50.581Z,30.30
2024-02-18T05:08:23.046Z,47.45
2024-02-18T05:09:55.237Z,49.70
2024-02-18T05:11:27.527Z,20.10
2024-02-18T05:12:59.728Z,26.00
2024-02-18T05:14:34.911Z,30.80
2024-02-18T05:16:08.936Z,27.02
2024-02-18T05:17:41.317Z,28.17
2024-02-18T05:19:14.121Z,20.42
2024-02-18T05:20:46.765Z,19.92
2024-02-18T05:22:20.715Z,21.95
2024-02-18T05:23:55.930Z,23.02
2024-02-18T05:25:29.103Z,24.75
2024-02-18T05:27:01.987Z,25.08
2024-02-18T05:28:35.547Z,17.30
2024-02-18T05:31:40.273Z,18.73
2024-02-18T05:33:12.468Z,19.15
2024-02-18T05:34:44.846Z,16.85
2024-02-18T05:36:18.042Z,18.48
2024-02-18T05:37:50.328Z,16.88
2024-02-18T05:39:22.803Z,16.27
2024-02-18T05:40:55.016Z,18.85
2024-02-18T05:42:27.278Z,24.45
2024-02-18T05:43:59.471Z,24.02
2024-02-18T05:45:32.934Z,19.65
2024-02-18T05:48:37.848Z,24.45
2024-02-18T05:50:10.299Z,18.45
2024-02-18T05:51:42.513Z,16.27
2024-02-18T05:53:14.795Z,19.73
2024-02-18T05:54:47.224Z,20.40
2024-02-18T05:56:19.401Z,16.58
2024-02-18T05:57:51.512Z,23.60
2024-02-18T05:59:24.082Z,21.70
2024-02-18T06:00:56.522Z,22.00
2024-02-18T06:02:29.167Z,19.35
2024-02-18T06:04:01.406Z,21.65
2024-02-18T06:05:33.919Z,21.60
2024-02-18T06:07:06.293Z,19.30
2024-02-18T06:08:38.801Z,20.55
2024-02-18T06:10:11.420Z,17.20
2024-02-18T06:54:28.982Z,20.77
2024-02-18T06:56:01.285Z,22.48
2024-02-18T06:57:33.710Z,18.63
2024-02-18T06:59:06.125Z,20.50
2024-02-18T07:00:39.159Z,18.35
2024-02-18T07:02:11.562Z,22.25
2024-02-18T07:03:43.844Z,17.63
2024-02-18T07:05:16.103Z,21.52
2024-02-18T07:06:48.526Z,19.35
2024-02-18T07:08:26.888Z,17.48
2024-02-18T07:09:59.206Z,17.73
2024-02-18T07:11:32.079Z,20.02
2024-02-18T07:13:05.120Z,20.20
2024-02-18T07:14:37.879Z,19.23
2024-02-18T07:16:10.348Z,18.25
2024-02-18T07:17:43.102Z,16.55
2024-02-18T07:19:15.545Z,18.92
2024-02-18T07:20:47.909Z,20.88
2024-02-18T07:22:20.344Z,18.70
2024-02-18T07:23:52.872Z,21.70
2024-02-18T07:25:25.091Z,18.48
2024-02-18T07:26:57.228Z,22.40
2024-02-18T07:28:29.483Z,38.72
2024-02-18T07:30:01.835Z,40.80
2024-02-18T07:31:38.568Z,26.00
2024-02-18T07:33:12.322Z,26.67
2024-02-18T07:34:44.776Z,35.22
2024-02-18T07:36:17.131Z,35.38
2024-02-18T07:37:49.374Z,36.78
2024-02-18T07:39:26.014Z,25.70
2024-02-18T07:40:58.285Z,28.13
2024-02-18T07:42:31.071Z,25.55
2024-02-18T07:44:03.838Z,24.13
2024-02-18T07:45:36.449Z,24.00
2024-02-18T07:47:08.792Z,23.38
2024-02-18T07:48:41.213Z,20.70
2024-02-18T07:50:13.505Z,25.13
2024-02-18T07:51:45.805Z,24.00
2024-02-18T07:53:18.081Z,26.92
2024-02-18T07:54:50.385Z,22.80
2024-02-18T07:56:22.723Z,23.77
2024-02-18T07:57:55.013Z,26.27
2024-02-18T07:59:28.991Z,29.63
2024-02-18T08:01:01.364Z,27.88
2024-02-18T08:02:33.629Z,26.63
2024-02-18T08:04:06.668Z,25.77
2024-02-18T08:05:40.183Z,23.80
2024-02-18T08:08:45.150Z,25.83
2024-02-18T08:10:18.286Z,23.88
2024-02-18T08:11:50.826Z,23.30
2024-02-18T08:13:23.797Z,23.97
2024-02-18T08:14:56.215Z,26.83
2024-02-18T08:16:30.311Z,24.27
2024-02-18T08:18:02.730Z,23.20
2024-02-18T08:19:35.450Z,20.38
2024-02-18T08:21:07.897Z,21.20
2024-02-18T08:22:40.227Z,20.15
2024-02-18T08:24:12.482Z,20.50
2024-02-18T08:25:45.076Z,19.80
2024-02-18T08:27:17.535Z,17.47
2024-02-18T08:28:50.549Z,22.27
2024-02-18T08:30:22.952Z,21.88
2024-02-18T08:32:02.219Z,25.88
2024-02-18T08:33:34.888Z,23.23
2024-02-18T08:35:08.489Z,20.95
2024-02-18T08:36:41.193Z,21.83
2024-02-18T08:38:13.931Z,24.02
2024-02-18T08:39:46.543Z,24.17
2024-02-18T08:41:22.850Z,25.08
2024-02-18T08:42:55.539Z,31.33
2024-02-18T08:44:27.851Z,40.55
2024-02-18T08:46:02.923Z,67.90
2024-02-18T08:47:35.274Z,64.93
2024-02-18T08:49:07.729Z,61.33
2024-02-18T08:50:40.661Z,54.72
2024-02-18T08:52:13.273Z,68.28
2024-02-18T08:53:45.572Z,51.07
2024-02-18T08:55:18.123Z,41.28
2024-02-18T08:56:50.518Z,39.50
2024-02-18T08:58:22.799Z,38.80
2024-02-18T08:59:55.436Z,32.92
2024-02-18T09:01:28.187Z,26.33
2024-02-18T09:03:02.655Z,27.27
2024-02-18T09:04:35.066Z,25.73
2024-02-18T09:06:07.608Z,21.25
2024-02-18T09:07:40.303Z,21.33
2024-02-18T09:09:12.898Z,27.88
2024-02-18T09:10:45.280Z,30.77
2024-02-18T09:12:17.641Z,24.13
2024-02-18T09:13:50.146Z,27.17
2024-02-18T09:15:22.691Z,24.20
2024-02-18T09:16:55.068Z,21.37
2024-02-18T09:18:29.228Z,19.33
2024-02-18T09:20:04.143Z,20.40
2024-02-18T09:21:36.578Z,19.58
2024-02-18T09:23:08.843Z,20.30
2024-02-18T09:24:44.766Z,21.00
2024-02-18T09:26:17.085Z,19.05
2024-02-18T09:27:50.493Z,23.90
2024-02-18T09:30:57.116Z,23.35
2024-02-18T09:32:29.342Z,23.52
2024-02-18T09:34:01.839Z,21.92
2024-02-18T09:35:35.663Z,21.13
2024-02-18T09:37:08.109Z,21.45
2024-02-18T09:38:41.193Z,18.92
2024-02-18T09:40:13.733Z,24.77
2024-02-18T09:41:47.712Z,19.73
2024-02-18T09:43:20.641Z,20.90
2024-02-18T09:44:53.292Z,20.90
2024-02-18T09:46:26.252Z,18.73
2024-02-18T09:47:58.990Z,20.42
2024-02-18T09:49:31.638Z,26.20
2024-02-18T09:51:07.524Z,24.58
2024-02-18T09:52:44.242Z,19.83
2024-02-18T09:54:17.241Z,20.98
2024-02-18T09:55:50.397Z,18.52
2024-02-18T09:57:22.944Z,21.88
2024-02-18T10:00:28.260Z,18.15
2024-02-18T10:02:01.435Z,25.20
2024-02-18T10:03:34.320Z,19.80
2024-02-18T10:05:07.926Z,18.48
2024-02-18T10:06:40.441Z,20.17
2024-02-18T10:08:13.283Z,18.40
2024-02-18T10:09:45.620Z,20.20
2024-02-18T10:11:17.961Z,21.15
2024-02-18T10:12:51.458Z,21.13
2024-02-18T10:16:01.992Z,20.90
2024-02-18T10:17:34.725Z,18.55
2024-02-18T10:19:09.956Z,18.73
2024-02-18T10:20:43.026Z,21.95
2024-02-18T10:22:15.839Z,18.98
2024-02-18T10:23:48.223Z,20.92
2024-02-18T10:25:20.728Z,20.25
2024-02-18T10:26:53.657Z,22.30
2024-02-18T10:28:29.356Z,19.55
2024-02-18T10:30:02.109Z,19.17
2024-02-18T10:31:34.807Z,19.65
2024-02-18T10:33:07.355Z,20.75
2024-02-18T10:34:39.919Z,22.83
2024-02-18T10:36:14.931Z,25.30
2024-02-18T10:37:51.218Z,22.40
2024-02-18T10:39:26.263Z,22.20
2024-02-18T10:41:09.895Z,20.73
2024-02-18T10:42:50.142Z,21.77
2024-02-18T10:44:22.555Z,22.83
2024-02-18T10:45:55.964Z,20.98
2024-02-18T10:49:16.660Z,21.40
2024-02-18T10:50:51.507Z,24.27
2024-02-18T10:52:29.432Z,23.65
2024-02-18T10:54:28.996Z,26.15
2024-02-18T10:56:09.435Z,22.55
2024-02-18T10:57:47.729Z,22.92
2024-02-18T10:59:27.701Z,24.13
2024-02-18T11:01:02.750Z,21.52
2024-02-18T11:02:53.745Z,21.70
2024-02-18T11:04:27.016Z,24.08
2024-02-18T11:06:00.394Z,21.73
2024-02-18T11:09:06.027Z,21.30
2024-02-18T11:10:39.313Z,21.73
2024-02-18T11:12:11.877Z,23.45
2024-02-18T11:13:45.582Z,23.13
2024-02-18T11:15:18.221Z,29.73
2024-02-18T11:16:51.043Z,24.02
2024-02-18T11:18:24.139Z,26.00
2024-02-18T11:19:57.831Z,29.52
2024-02-18T11:21:32.491Z,27.60
2024-02-18T11:23:05.512Z,29.40
2024-02-18T11:24:37.953Z,29.15
2024-02-18T11:26:10.580Z,30.77
2024-02-18T11:27:42.867Z,33.97
2024-02-18T11:29:15.374Z,24.30
2024-02-18T11:30:47.835Z,25.03
2024-02-18T11:32:21.659Z,20.63
2024-02-18T11:33:54.650Z,23.75
2024-02-18T11:35:27.096Z,22.55
2024-02-18T11:36:59.334Z,26.58
2024-02-18T11:38:31.629Z,26.15
2024-02-18T11:40:20.954Z,23.52
2024-02-18T11:41:55.698Z,34.58
2024-02-18T11:43:28.063Z,23.88
2024-02-18T11:45:10.243Z,26.30
2024-02-18T11:46:45.117Z,27.58
2024-02-18T11:48:17.448Z,25.98
2024-02-18T11:49:49.923Z,25.67
2024-02-18T11:51:23.692Z,23.87
2024-02-18T11:52:57.263Z,23.05
2024-02-18T11:54:29.926Z,25.17
2024-02-18T11:56:03.584Z,24.13
2024-02-18T11:57:36.294Z,28.00
2024-02-18T11:59:09.225Z,26.90
2024-02-18T12:00:41.919Z,27.52
2024-02-18T12:02:22.089Z,27.77
2024-02-18T12:03:57.982Z,32.58
2024-02-18T12:05:31.680Z,30.58
2024-02-18T12:07:05.364Z,28.42
2024-02-18T12:08:38.600Z,26.35
2024-02-18T12:10:11.165Z,31.38
2024-02-18T12:11:46.127Z,32.47
2024-02-18T12:13:19.014Z,28.20
2024-02-18T12:14:58.414Z,24.58
2024-02-18T12:16:30.776Z,26.60
2024-02-18T12:18:03.763Z,22.30
2024-02-18T12:19:36.348Z,27.38
2024-02-18T12:21:09.146Z,24.15
2024-02-18T12:22:42.852Z,23.95
2024-02-18T12:24:16.746Z,24.33
2024-02-18T12:25:49.273Z,24.43
2024-02-18T12:27:22.299Z,21.58
2024-02-18T12:28:54.542Z,25.48
2024-02-18T12:30:26.784Z,24.52
2024-02-18T12:31:59.153Z,24.13
2024-02-18T12:33:32.522Z,26.25
2024-02-18T12:35:08.652Z,26.02
2024-02-18T12:36:42.287Z,25.00
2024-02-18T12:38:16.786Z,25.45
2024-02-18T12:39:52.413Z,24.63
2024-02-18T12:41:24.613Z,26.05
2024-02-18T12:43:25.147Z,24.98
2024-02-18T12:46:29.070Z,25.27
2024-02-18T12:49:34.903Z,22.48
2024-02-18T12:51:12.344Z,20.67
2024-02-18T12:52:48.112Z,23.95
2024-02-18T12:54:21.993Z,25.38
2024-02-18T12:55:54.346Z,23.83
2024-02-18T12:57:27.022Z,32.40
2024-02-18T12:58:59.829Z,22.38
2024-02-18T13:00:32.932Z,24.40
2024-02-18T13:02:08.180Z,21.90
2024-02-18T13:03:41.053Z,26.15
2024-02-18T13:05:17.808Z,26.75
2024-02-18T13:07:11.586Z,22.33
2024-02-18T13:08:43.817Z,21.85
2024-02-18T13:10:16.198Z,24.00
2024-02-18T13:11:48.714Z,26.88
2024-02-18T13:13:20.986Z,24.08
2024-02-18T13:14:53.379Z,25.02
2024-02-18T13:16:25.664Z,32.65
2024-02-18T13:17:58.093Z,30.80
2024-02-18T13:19:30.828Z,29.92
2024-02-18T13:21:03.184Z,30.38
2024-02-18T13:22:35.940Z,29.23
2024-02-18T13:24:08.240Z,32.05
2024-02-18T13:25:41.147Z,31.70
2024-02-18T13:27:13.603Z,31.88
2024-02-18T13:28:45.992Z,31.00
2024-02-18T13:32:06.369Z,31.15
2024-02-18T13:33:38.867Z,31.10
2024-02-18T13:35:14.200Z,32.67
2024-02-18T13:36:48.597Z,31.75
2024-02-18T13:38:21.520Z,33.97
2024-02-18T13:39:53.860Z,33.40
2024-02-18T13:41:26.331Z,32.08
2024-02-18T13:42:59.238Z,30.70
2024-02-18T13:44:33.338Z,29.38
2024-02-18T13:46:06.219Z,30.33
2024-02-18T13:47:38.659Z,28.38
2024-02-18T13:49:14.072Z,29.58
2024-02-18T13:50:46.962Z,31.63
2024-02-18T13:52:19.100Z,31.55
2024-02-18T13:53:51.302Z,31.55
2024-02-18T13:55:23.679Z,28.67
2024-02-18T13:56:56.324Z,30.35
2024-02-18T13:58:28.785Z,32.13
2024-02-18T14:00:00.990Z,31.20
2024-02-18T14:01:38.689Z,32.20
2024-02-18T14:03:11.339Z,30.05
2024-02-18T14:04:43.705Z,29.25
2024-02-18T14:06:16.022Z,28.65
2024-02-18T14:07:48.746Z,30.80
2024-02-18T14:09:21.353Z,31.30
2024-02-18T14:10:53.959Z,28.98
2024-02-18T14:12:26.268Z,30.40
2024-02-18T14:13:58.865Z,31.40
2024-02-18T14:15:40.026Z,31.98
2024-02-18T14:17:12.849Z,31.60
2024-02-18T14:18:45.637Z,30.10
2024-02-18T14:20:18.484Z,29.85
2024-02-18T14:21:51.729Z,29.23
2024-02-18T14:23:24.048Z,29.98
2024-02-18T14:24:58.179Z,28.95
2024-02-18T14:26:31.236Z,33.75
2024-02-18T14:28:04.270Z,30.02
2024-02-18T14:29:37.217Z,30.52
2024-02-18T14:31:09.648Z,30.73
2024-02-18T14:32:42.372Z,30.33
2024-02-18T14:34:14.726Z,30.08
2024-02-18T14:35:47.255Z,31.17
2024-02-18T14:37:19.471Z,30.83
2024-02-18T14:38:53.862Z,29.23
2024-02-18T14:40:27.747Z,30.85
2024-02-18T14:42:00.723Z,30.35
2024-02-18T14:43:33.426Z,29.75
2024-02-18T14:45:06.200Z,31.33
2024-02-18T14:46:38.436Z,33.17
2024-02-18T14:48:10.861Z,30.90
2024-02-18T14:49:48.127Z,30.73
2024-02-18T14:51:20.773Z,32.15
2024-02-18T14:52:53.290Z,30.73
2024-02-18T14:54:25.830Z,31.47
2024-02-18T14:56:01.006Z,30.43
2024-02-18T14:57:34.255Z,33.75
2024-02-18T14:59:06.484Z,30.50
2024-02-18T15:00:39.539Z,30.38
2024-02-18T15:02:11.797Z,31.55
2024-02-18T16:53:13.480Z,78.70
2024-02-18T16:54:46.338Z,127.95
2024-02-18T16:56:20.926Z,60.58
2024-02-18T16:57:53.720Z,48.83
2024-02-18T16:59:26.193Z,47.45
2024-02-18T17:00:58.578Z,48.60
2024-02-18T17:02:31.244Z,52.60
2024-02-18T17:04:04.696Z,50.40
2024-02-18T17:07:10.005Z,38.25
2024-02-18T17:08:42.504Z,36.33
2024-02-18T17:10:15.323Z,36.47
2024-02-18T17:11:49.163Z,37.85
2024-02-18T17:13:21.578Z,43.35
2024-02-18T17:14:54.346Z,47.90
2024-02-18T17:16:26.936Z,49.13
2024-02-18T17:17:59.455Z,53.65
2024-02-18T17:19:32.654Z,54.08
2024-02-18T17:21:05.237Z,61.63
2024-02-18T17:22:37.465Z,51.25
2024-02-18T17:24:09.807Z,40.15
2024-02-18T17:27:15.115Z,42.22
2024-02-18T17:28:50.457Z,52.30
2024-02-18T17:30:23.266Z,58.13
2024-02-18T17:31:56.630Z,58.40
2024-02-18T17:33:34.902Z,53.97
2024-02-18T17:35:07.648Z,46.47
2024-02-18T17:36:39.952Z,43.00
2024-02-18T17:38:12.276Z,46.45
2024-02-18T17:39:45.505Z,47.70
2024-02-18T17:41:17.862Z,42.38
2024-02-18T17:42:51.490Z,45.65
2024-02-18T17:44:23.876Z,40.95
2024-02-18T17:45:56.009Z,42.83
2024-02-18T17:47:29.870Z,43.78
2024-02-18T17:49:02.418Z,45.17
2024-02-18T17:50:38.022Z,45.83
2024-02-18T17:52:12.731Z,42.33
2024-02-18T17:53:45.504Z,43.58
2024-02-18T17:55:18.084Z,37.13
2024-02-18T17:56:51.405Z,45.33
2024-02-18T17:58:24.690Z,36.97
2024-02-18T18:01:30.169Z,39.45
2024-02-18T18:03:02.473Z,44.03
2024-02-18T18:04:35.149Z,36.95
2024-02-18T18:06:08.067Z,38.65
2024-02-18T18:07:40.526Z,38.35
2024-02-18T18:09:13.142Z,40.00
2024-02-18T18:10:45.595Z,38.27
2024-02-18T18:12:18.076Z,39.05
2024-02-18T18:13:50.411Z,41.20
2024-02-18T18:15:23.742Z,38.05
2024-02-18T18:18:28.647Z,33.47
2024-02-18T18:20:01.423Z,34.87
2024-02-18T18:21:33.900Z,41.90
2024-02-18T18:23:06.621Z,39.75
2024-02-18T18:24:39.321Z,40.08
2024-02-18T18:26:11.763Z,41.13
2024-02-18T18:27:44.355Z,40.13
2024-02-18T18:29:19.254Z,40.53
2024-02-18T18:30:51.854Z,37.17
2024-02-18T18:32:24.513Z,40.10
2024-02-18T18:33:57.275Z,42.53
2024-02-18T18:35:30.283Z,39.03
2024-02-18T18:37:05.243Z,37.75
2024-02-18T18:38:38.138Z,34.95
2024-02-18T18:40:11.527Z,36.00
2024-02-18T18:41:44.020Z,38.20
2024-02-18T18:43:16.812Z,38.13
2024-02-18T18:44:50.553Z,37.33
2024-02-18T18:46:24.157Z,39.00
2024-02-18T18:47:59.488Z,35.10
2024-02-18T18:49:31.937Z,31.55
2024-02-18T18:51:04.622Z,33.38
2024-02-18T18:52:38.626Z,31.47
2024-02-18T18:54:12.712Z,31.42
2024-02-18T18:55:45.251Z,32.13
2024-02-18T18:57:17.588Z,32.20
2024-02-18T18:58:50.680Z,27.48
2024-02-18T19:00:24.578Z,30.95
2024-02-18T19:02:00.941Z,30.05
2024-02-18T19:03:33.808Z,32.58
2024-02-18T19:05:06.815Z,30.48
2024-02-18T19:06:39.225Z,30.63
2024-02-18T19:08:11.587Z,28.35
2024-02-18T19:09:43.937Z,30.70
2024-02-18T19:11:16.384Z,29.55
2024-02-18T19:12:48.919Z,30.35
2024-02-18T19:14:21.542Z,31.45
2024-02-18T19:15:56.706Z,29.90
2024-02-18T19:17:30.335Z,30.90
2024-02-18T19:19:02.820Z,32.10
2024-02-18T19:20:35.648Z,30.73
2024-02-18T19:22:08.267Z,30.35
2024-02-18T19:23:40.879Z,28.77
2024-02-18T19:25:13.249Z,30.13
2024-02-18T19:26:45.995Z,27.00
2024-02-18T19:28:18.340Z,28.92
2024-02-18T19:29:50.648Z,31.30
2024-02-18T19:31:23.176Z,27.75
2024-02-18T19:32:56.217Z,33.63
2024-02-18T19:34:28.677Z,33.10
2024-02-18T19:36:02.415Z,33.67
2024-02-18T19:37:34.673Z,34.80
2024-02-18T19:39:07.036Z,29.77
2024-02-18T19:40:39.572Z,33.47
2024-02-18T19:42:12.779Z,32.80
2024-02-18T19:43:45.078Z,33.60
2024-02-18T19:45:20.891Z,29.55
2024-02-18T19:46:53.293Z,27.95
2024-02-18T19:48:25.569Z,31.13
2024-02-18T19:49:57.963Z,30.33
2024-02-18T19:51:30.347Z,29.92
2024-02-18T19:53:02.718Z,29.55
2024-02-18T21:58:58.561Z,50.45
2024-02-18T22:00:31.343Z,56.80
